Time;durP1;ratioP1;P1;durP2;ratioP2;P2;SDS_P1;SDS_P2;PMS_P1;PMS_P2;Temp;Humidity;BMP_temperature;BMP_pressure;BME280_temperature;BME280_humidity;BME280_pressure;Samples;Min_cycle;Max_cycle;Signal;HPM_P1;HPM_P2
2021/08/30 00:01:53;;;;;;;38.55;10.95;;;;;;;;;;5017971;28;20041;-62
2021/08/30 00:04:21;;;;;;;27.35;11.02;;;;;;;;;;5020237;28;20183;-62
2021/08/30 00:06:48;;;;;;;29.73;10.80;;;;;;;;;;5015837;28;20075;-62
2021/08/30 00:09:14;;;;;;;26.27;10.65;;;;;;;;;;5032018;28;20033;-62
2021/08/30 00:11:40;;;;;;;28.60;9.65;;;;;;;;;;5009789;28;20074;-62
2021/08/30 00:14:06;;;;;;;22.25;9.80;;;;;;;;;;5018961;28;20038;-62
2021/08/30 00:16:32;;;;;;;27.77;9.73;;;;;;;;;;5018966;28;20025;-62
2021/08/30 00:19:00;;;;;;;20.52;9.65;;;;;;;;;;5000236;28;20099;-62
2021/08/30 00:21:26;;;;;;;28.20;10.63;;;;;;;;;;5015836;28;20845;-62
2021/08/30 00:23:51;;;;;;;30.52;9.63;;;;;;;;;;5016590;28;20063;-62
2021/08/30 00:26:17;;;;;;;20.70;10.52;;;;;;;;;;5000732;28;20036;-62
2021/08/30 00:28:42;;;;;;;20.98;9.27;;;;;;;;;;5010660;28;20041;-61
2021/08/30 00:31:10;;;;;;;24.00;9.80;;;;;;;;;;5015686;28;20038;-61
2021/08/30 00:33:38;;;;;;;26.20;9.25;;;;;;;;;;5000848;28;20124;-62
2021/08/30 00:36:06;;;;;;;26.45;10.43;;;;;;;;;;5016561;28;20676;-62
2021/08/30 00:38:36;;;;;;;26.77;10.65;;;;;;;;;;5015670;28;20037;-62
2021/08/30 00:41:02;;;;;;;30.02;9.85;;;;;;;;;;5014492;28;20079;-61
2021/08/30 00:43:32;;;;;;;29.38;10.57;;;;;;;;;;5017351;28;20029;-62
2021/08/30 00:45:59;;;;;;;22.92;10.38;;;;;;;;;;5030889;28;20582;-62
2021/08/30 00:48:29;;;;;;;37.55;10.23;;;;;;;;;;5015404;28;20079;-63
2021/08/30 00:50:57;;;;;;;27.35;10.32;;;;;;;;;;5017075;28;20044;-62
2021/08/30 00:53:25;;;;;;;23.25;10.80;;;;;;;;;;5012390;28;20045;-62
2021/08/30 00:55:50;;;;;;;27.77;10.30;;;;;;;;;;5013433;28;20036;-62
2021/08/30 00:58:21;;;;;;;34.17;11.13;;;;;;;;;;4986771;28;20061;-62
2021/08/30 01:00:46;;;;;;;26.33;10.85;;;;;;;;;;5002162;28;20047;-61
2021/08/30 01:03:12;;;;;;;31.70;11.23;;;;;;;;;;5004656;28;20110;-62
2021/08/30 01:05:43;;;;;;;25.00;10.82;;;;;;;;;;4986772;28;20153;-63
2021/08/30 01:08:17;;;;;;;35.10;11.25;;;;;;;;;;4996415;28;20054;-62
2021/08/30 01:10:54;;;;;;;25.95;10.73;;;;;;;;;;5001965;28;20029;-63
2021/08/30 01:13:33;;;;;;;26.88;11.07;;;;;;;;;;4984138;28;20056;-61
2021/08/30 01:16:06;;;;;;;31.90;11.75;;;;;;;;;;5002409;28;20033;-62
2021/08/30 01:18:32;;;;;;;27.55;11.73;;;;;;;;;;5002009;28;20034;-62
2021/08/30 01:21:10;;;;;;;38.13;11.73;;;;;;;;;;5000632;28;20302;-62
2021/08/30 01:23:40;;;;;;;31.23;12.85;;;;;;;;;;5004139;28;20037;-62
2021/08/30 01:26:10;;;;;;;30.05;13.02;;;;;;;;;;5000776;28;20043;-61
2021/08/30 01:28:54;;;;;;;36.03;12.90;;;;;;;;;;4992862;28;20808;-61
2021/08/30 01:31:26;;;;;;;32.28;13.23;;;;;;;;;;5000682;28;20029;-61
2021/08/30 01:33:52;;;;;;;41.38;12.75;;;;;;;;;;5004861;28;20040;-61
2021/08/30 01:36:19;;;;;;;38.65;13.63;;;;;;;;;;4985170;28;20393;-61
2021/08/30 01:38:46;;;;;;;32.47;12.27;;;;;;;;;;5000122;28;20109;-62
2021/08/30 01:41:17;;;;;;;37.38;13.98;;;;;;;;;;4998362;28;20055;-61
2021/08/30 01:43:46;;;;;;;38.70;14.20;;;;;;;;;;5001945;28;20959;-62
2021/08/30 01:46:15;;;;;;;34.08;12.65;;;;;;;;;;4986214;28;20049;-62
2021/08/30 01:48:48;;;;;;;35.67;13.23;;;;;;;;;;5001137;28;20492;-61
2021/08/30 01:51:16;;;;;;;34.10;12.07;;;;;;;;;;5002917;28;21007;-61
2021/08/30 01:53:45;;;;;;;38.05;12.85;;;;;;;;;;5001970;28;20791;-61
2021/08/30 01:56:13;;;;;;;43.63;12.43;;;;;;;;;;5001039;28;20088;-62
2021/08/30 02:01:24;;;;;;;46.60;14.00;;;;;;;;;;5003916;28;20978;-61
2021/08/30 02:03:52;;;;;;;35.78;11.55;;;;;;;;;;4998515;28;20030;-61
2021/08/30 02:06:20;;;;;;;31.40;11.93;;;;;;;;;;5003046;28;20075;-61
2021/08/30 02:08:47;;;;;;;37.35;12.68;;;;;;;;;;4998076;28;20029;-61
2021/08/30 02:11:20;;;;;;;31.27;12.10;;;;;;;;;;5001469;28;20052;-61
2021/08/30 02:13:46;;;;;;;48.72;13.60;;;;;;;;;;5000266;28;20143;-62
2021/08/30 02:16:15;;;;;;;40.45;11.60;;;;;;;;;;5000037;28;20156;-61
2021/08/30 02:18:48;;;;;;;28.92;11.35;;;;;;;;;;5002272;28;20052;-62
2021/08/30 02:21:17;;;;;;;44.25;10.93;;;;;;;;;;5003993;28;20049;-62
2021/08/30 02:23:52;;;;;;;35.17;11.85;;;;;;;;;;5000121;28;20033;-62
2021/08/30 02:26:24;;;;;;;31.13;11.60;;;;;;;;;;4994733;28;20318;-62
2021/08/30 02:28:50;;;;;;;32.65;11.80;;;;;;;;;;5000251;28;20045;-63
2021/08/30 02:31:16;;;;;;;41.90;12.82;;;;;;;;;;5000134;28;20182;-62
2021/08/30 02:33:48;;;;;;;26.85;11.77;;;;;;;;;;4999966;28;20025;-62
2021/08/30 02:36:14;;;;;;;33.83;13.00;;;;;;;;;;5016239;28;20663;-61
2021/08/30 02:38:43;;;;;;;30.33;11.80;;;;;;;;;;5003990;28;20033;-62
2021/08/30 02:41:09;;;;;;;46.15;13.13;;;;;;;;;;5003223;28;20136;-61
2021/08/30 02:43:35;;;;;;;45.40;12.45;;;;;;;;;;4996453;28;20428;-61
2021/08/30 02:46:02;;;;;;;38.33;12.85;;;;;;;;;;5003594;28;20077;-61
2021/08/30 02:48:31;;;;;;;30.98;11.45;;;;;;;;;;4970437;28;20183;-62
2021/08/30 02:50:57;;;;;;;29.20;11.18;;;;;;;;;;5001167;28;20807;-63
2021/08/30 02:53:26;;;;;;;29.33;11.48;;;;;;;;;;4984704;28;20029;-61
2021/08/30 02:55:55;;;;;;;43.72;12.05;;;;;;;;;;5001994;28;20159;-62
2021/08/30 02:58:20;;;;;;;30.20;12.68;;;;;;;;;;4998470;28;20043;-62
2021/08/30 03:00:46;;;;;;;33.08;11.35;;;;;;;;;;5015653;28;20682;-62
2021/08/30 03:03:14;;;;;;;38.05;12.73;;;;;;;;;;5000975;28;20025;-62
2021/08/30 03:05:40;;;;;;;31.40;12.05;;;;;;;;;;4984158;28;20026;-61
2021/08/30 03:08:06;;;;;;;37.33;12.18;;;;;;;;;;4981227;28;20021;-61
2021/08/30 03:10:34;;;;;;;32.55;12.77;;;;;;;;;;4996161;28;21285;-61
2021/08/30 03:13:02;;;;;;;30.17;11.65;;;;;;;;;;5001160;28;20029;-62
2021/08/30 03:15:28;;;;;;;31.30;12.73;;;;;;;;;;5004301;28;20025;-62
2021/08/30 03:17:54;;;;;;;31.30;11.80;;;;;;;;;;4984365;28;20041;-61
2021/08/30 03:20:26;;;;;;;37.20;12.23;;;;;;;;;;4999947;28;20131;-61
2021/08/30 03:22:53;;;;;;;37.17;13.35;;;;;;;;;;5003250;28;20041;-62
2021/08/30 03:25:22;;;;;;;39.72;13.10;;;;;;;;;;4993627;28;20130;-60
2021/08/30 03:27:48;;;;;;;29.50;12.25;;;;;;;;;;5002063;28;20021;-62
2021/08/30 03:30:14;;;;;;;42.20;12.55;;;;;;;;;;4995405;28;20075;-62
2021/08/30 03:32:41;;;;;;;33.67;12.27;;;;;;;;;;4980504;28;20120;-61
2021/08/30 03:35:12;;;;;;;39.25;13.35;;;;;;;;;;4998980;28;20408;-61
2021/08/30 03:37:41;;;;;;;39.90;13.85;;;;;;;;;;5000800;28;20879;-59
2021/08/30 03:40:12;;;;;;;42.65;12.00;;;;;;;;;;5016621;28;20569;-60
2021/08/30 03:42:38;;;;;;;34.35;11.60;;;;;;;;;;4984254;28;20029;-61
2021/08/30 03:45:07;;;;;;;28.27;13.00;;;;;;;;;;4983728;28;20052;-61
2021/08/30 03:47:33;;;;;;;34.88;10.98;;;;;;;;;;5003669;28;20061;-61
2021/08/30 03:50:02;;;;;;;46.30;11.25;;;;;;;;;;4997726;28;20022;-61
2021/08/30 03:52:29;;;;;;;43.63;12.23;;;;;;;;;;5001088;28;20033;-61
2021/08/30 03:54:58;;;;;;;29.60;11.05;;;;;;;;;;4997857;28;20099;-61
2021/08/30 03:57:24;;;;;;;35.88;12.05;;;;;;;;;;5001000;28;20030;-61
2021/08/30 03:59:56;;;;;;;34.00;11.27;;;;;;;;;;5000737;28;20045;-61
2021/08/30 04:02:25;;;;;;;44.05;11.00;;;;;;;;;;5001563;28;21978;-61
2021/08/30 04:04:55;;;;;;;30.65;10.65;;;;;;;;;;5000668;28;20502;-61
2021/08/30 04:07:25;;;;;;;32.65;11.00;;;;;;;;;;4996724;28;20044;-61
2021/08/30 04:09:51;;;;;;;33.00;11.32;;;;;;;;;;5001899;28;20033;-61
2021/08/30 04:12:17;;;;;;;27.00;11.90;;;;;;;;;;4984147;28;20038;-61
2021/08/30 04:14:43;;;;;;;29.83;11.05;;;;;;;;;;5001347;28;21053;-61
2021/08/30 04:17:12;;;;;;;33.70;11.98;;;;;;;;;;4998388;28;20042;-61
2021/08/30 04:19:38;;;;;;;40.85;11.90;;;;;;;;;;5001939;28;20068;-60
2021/08/30 04:22:03;;;;;;;56.65;12.40;;;;;;;;;;4979024;28;22036;-61
2021/08/30 04:24:28;;;;;;;36.95;10.77;;;;;;;;;;4999070;28;20037;-61
2021/08/30 04:26:56;;;;;;;34.65;11.50;;;;;;;;;;4998506;28;20038;-61
2021/08/30 04:29:26;;;;;;;30.42;11.75;;;;;;;;;;5001941;28;20022;-61
2021/08/30 04:31:52;;;;;;;29.10;11.50;;;;;;;;;;5001509;28;20406;-61
2021/08/30 04:34:24;;;;;;;41.35;11.18;;;;;;;;;;5002227;28;20041;-61
2021/08/30 04:36:50;;;;;;;41.60;12.50;;;;;;;;;;5004494;28;20053;-62
2021/08/30 04:39:18;;;;;;;26.80;11.25;;;;;;;;;;4986586;28;20727;-62
2021/08/30 04:41:44;;;;;;;35.95;11.73;;;;;;;;;;5002647;28;20230;-62
2021/08/30 04:44:12;;;;;;;26.58;10.40;;;;;;;;;;5002853;28;20564;-61
2021/08/30 04:46:38;;;;;;;32.50;10.90;;;;;;;;;;5003443;28;20050;-62
2021/08/30 04:49:04;;;;;;;26.88;11.10;;;;;;;;;;5003778;28;20064;-61
2021/08/30 04:51:31;;;;;;;28.08;10.48;;;;;;;;;;5003080;28;20049;-61
2021/08/30 04:54:02;;;;;;;44.95;10.80;;;;;;;;;;5006127;28;20029;-62
2021/08/30 04:56:29;;;;;;;32.05;11.25;;;;;;;;;;4984811;28;20041;-61
2021/08/30 04:58:57;;;;;;;33.67;10.90;;;;;;;;;;4986056;28;20118;-62
2021/08/30 05:01:25;;;;;;;29.25;12.13;;;;;;;;;;5005352;28;20081;-62
2021/08/30 05:03:53;;;;;;;36.53;10.73;;;;;;;;;;4995767;28;20041;-62
2021/08/30 05:06:23;;;;;;;35.72;11.60;;;;;;;;;;5002996;28;20034;-61
2021/08/30 05:08:49;;;;;;;37.10;10.60;;;;;;;;;;4988685;28;20025;-61
2021/08/30 05:11:16;;;;;;;44.92;10.32;;;;;;;;;;4997775;28;20147;-62
2021/08/30 05:13:44;;;;;;;33.28;10.15;;;;;;;;;;4989486;28;20105;-61
2021/08/30 05:16:10;;;;;;;29.60;9.75;;;;;;;;;;5003869;28;20034;-61
2021/08/30 05:18:35;;;;;;;30.67;10.10;;;;;;;;;;4988221;28;20032;-61
2021/08/30 05:21:00;;;;;;;27.90;10.35;;;;;;;;;;5004893;28;20042;-61
2021/08/30 05:23:31;;;;;;;25.67;8.80;;;;;;;;;;4986333;28;20079;-62
2021/08/30 05:25:56;;;;;;;25.98;9.75;;;;;;;;;;4986312;28;20099;-62
2021/08/30 05:28:24;;;;;;;30.10;10.18;;;;;;;;;;4998673;28;20061;-61
2021/08/30 05:30:52;;;;;;;27.02;9.82;;;;;;;;;;4998792;28;20122;-64
2021/08/30 05:33:20;;;;;;;26.45;9.75;;;;;;;;;;5004067;28;20014;-61
2021/08/30 05:35:45;;;;;;;26.13;9.40;;;;;;;;;;5000667;28;20025;-62
2021/08/30 05:38:11;;;;;;;24.15;9.70;;;;;;;;;;4987009;28;20150;-60
2021/08/30 05:40:38;;;;;;;33.83;9.52;;;;;;;;;;4995680;28;20034;-61
2021/08/30 05:43:04;;;;;;;25.15;9.75;;;;;;;;;;5002420;28;22271;-62
2021/08/30 05:45:31;;;;;;;20.65;10.23;;;;;;;;;;5001930;28;20053;-62
2021/08/30 05:47:57;;;;;;;24.05;10.35;;;;;;;;;;4997470;28;20044;-62
2021/08/30 05:50:24;;;;;;;24.23;9.38;;;;;;;;;;5004317;28;20025;-60
2021/08/30 05:52:50;;;;;;;23.67;10.52;;;;;;;;;;5004007;28;20070;-61
2021/08/30 05:55:19;;;;;;;22.75;9.52;;;;;;;;;;4999254;28;20664;-60
2021/08/30 05:57:49;;;;;;;30.23;10.10;;;;;;;;;;5000777;28;20040;-60
2021/08/30 06:00:15;;;;;;;24.15;10.23;;;;;;;;;;5003263;28;20029;-61
2021/08/30 06:02:41;;;;;;;21.98;9.70;;;;;;;;;;5001676;28;20044;-60
2021/08/30 06:05:06;;;;;;;16.23;9.43;;;;;;;;;;5001946;28;20033;-61
2021/08/30 06:07:32;;;;;;;26.73;9.73;;;;;;;;;;4969671;28;20044;-60
2021/08/30 06:09:58;;;;;;;18.77;9.18;;;;;;;;;;5004517;28;20033;-60
2021/08/30 06:12:23;;;;;;;30.27;10.05;;;;;;;;;;5003131;28;20110;-60
2021/08/30 06:14:49;;;;;;;23.17;10.10;;;;;;;;;;4999821;28;20029;-60
2021/08/30 06:17:15;;;;;;;23.30;9.63;;;;;;;;;;4981713;28;20408;-59
2021/08/30 06:19:42;;;;;;;22.92;9.18;;;;;;;;;;5004233;28;20925;-61
2021/08/30 06:22:08;;;;;;;20.23;9.43;;;;;;;;;;4999406;28;20091;-60
2021/08/30 06:24:38;;;;;;;22.95;9.85;;;;;;;;;;5003400;28;20480;-60
2021/08/30 06:27:03;;;;;;;18.85;9.10;;;;;;;;;;4998254;28;20256;-60
2021/08/30 06:29:29;;;;;;;18.40;8.88;;;;;;;;;;4980626;28;20682;-60
2021/08/30 06:31:55;;;;;;;28.77;9.40;;;;;;;;;;4995109;28;20029;-61
2021/08/30 06:34:20;;;;;;;30.60;10.18;;;;;;;;;;4998698;28;20072;-61
2021/08/30 06:36:46;;;;;;;27.35;8.98;;;;;;;;;;4964469;28;20056;-61
2021/08/30 06:39:11;;;;;;;21.38;8.95;;;;;;;;;;4993287;28;20040;-61
2021/08/30 06:41:37;;;;;;;25.17;8.60;;;;;;;;;;4981584;28;20839;-62
2021/08/30 06:44:03;;;;;;;24.35;9.05;;;;;;;;;;4981100;28;20031;-62
2021/08/30 06:46:28;;;;;;;17.92;8.85;;;;;;;;;;4990780;28;20056;-61
2021/08/30 06:48:54;;;;;;;18.23;8.38;;;;;;;;;;4992434;28;20017;-61
2021/08/30 06:51:19;;;;;;;27.48;8.73;;;;;;;;;;4977439;28;20505;-61
2021/08/30 06:53:47;;;;;;;22.38;8.57;;;;;;;;;;4990965;28;20152;-61
2021/08/30 06:56:13;;;;;;;19.25;7.22;;;;;;;;;;4990828;28;22975;-62
2021/08/30 06:58:41;;;;;;;19.17;6.82;;;;;;;;;;4989857;28;20061;-62
2021/08/30 07:01:09;;;;;;;16.13;8.00;;;;;;;;;;4980301;28;20124;-61
2021/08/30 07:03:34;;;;;;;17.95;7.22;;;;;;;;;;4993017;28;20033;-62
2021/08/30 07:06:02;;;;;;;18.08;7.60;;;;;;;;;;4977929;28;20123;-61
2021/08/30 07:08:30;;;;;;;21.58;7.07;;;;;;;;;;5002283;28;20018;-62
2021/08/30 07:11:00;;;;;;;11.52;6.50;;;;;;;;;;5001091;28;20030;-61
2021/08/30 07:13:28;;;;;;;17.38;6.78;;;;;;;;;;5002753;28;20661;-62
2021/08/30 07:15:58;;;;;;;17.90;6.70;;;;;;;;;;4999814;28;20059;-61
2021/08/30 07:18:24;;;;;;;15.15;6.25;;;;;;;;;;5002259;28;20052;-60
2021/08/30 07:20:52;;;;;;;18.23;6.82;;;;;;;;;;4982473;28;20037;-62
2021/08/30 07:23:18;;;;;;;16.23;6.20;;;;;;;;;;4997592;28;20485;-61
2021/08/30 07:25:44;;;;;;;12.00;6.07;;;;;;;;;;4989485;28;20036;-61
2021/08/30 07:28:10;;;;;;;23.30;6.13;;;;;;;;;;4989538;28;20021;-61
2021/08/30 07:30:35;;;;;;;9.73;5.93;;;;;;;;;;4989698;28;20044;-61
2021/08/30 07:33:03;;;;;;;11.15;5.60;;;;;;;;;;4991804;28;20515;-60
2021/08/30 07:35:29;;;;;;;12.00;5.68;;;;;;;;;;4992425;28;20045;-61
2021/08/30 07:37:58;;;;;;;14.75;5.55;;;;;;;;;;4984984;28;20088;-62
2021/08/30 07:40:26;;;;;;;12.35;5.13;;;;;;;;;;5000946;28;20044;-61
2021/08/30 07:42:54;;;;;;;10.60;4.60;;;;;;;;;;5001760;28;20286;-61
2021/08/30 07:45:19;;;;;;;14.40;5.40;;;;;;;;;;4983632;28;20111;-62
2021/08/30 07:47:45;;;;;;;13.07;5.30;;;;;;;;;;4968598;28;20033;-60
2021/08/30 07:50:11;;;;;;;9.55;4.97;;;;;;;;;;4999679;28;20108;-62
2021/08/30 07:52:37;;;;;;;8.75;4.43;;;;;;;;;;5001496;28;20049;-62
2021/08/30 07:55:04;;;;;;;9.80;4.38;;;;;;;;;;5001198;28;20091;-62
2021/08/30 07:57:30;;;;;;;10.05;4.65;;;;;;;;;;5001621;28;20063;-61
2021/08/30 07:59:55;;;;;;;5.72;3.72;;;;;;;;;;4999088;28;20037;-62
2021/08/30 08:02:21;;;;;;;9.90;4.50;;;;;;;;;;4997621;28;20087;-61
2021/08/30 08:04:53;;;;;;;11.75;4.47;;;;;;;;;;5001058;28;20072;-61
2021/08/30 08:07:24;;;;;;;10.30;4.07;;;;;;;;;;5003539;28;20112;-60
2021/08/30 08:09:49;;;;;;;12.63;3.95;;;;;;;;;;5007983;28;20042;-62
2021/08/30 08:12:20;;;;;;;5.00;3.85;;;;;;;;;;5020190;28;20048;-61
2021/08/30 08:14:48;;;;;;;7.00;4.05;;;;;;;;;;5004329;28;20034;-62
2021/08/30 08:17:13;;;;;;;10.27;4.25;;;;;;;;;;5002556;28;20034;-63
2021/08/30 08:19:39;;;;;;;6.45;4.22;;;;;;;;;;5006081;28;20136;-60
2021/08/30 08:22:09;;;;;;;6.10;3.47;;;;;;;;;;5005159;28;20030;-62
2021/08/30 08:24:35;;;;;;;7.82;2.88;;;;;;;;;;5005700;28;20211;-61
2021/08/30 08:27:00;;;;;;;7.78;3.47;;;;;;;;;;4985987;28;20021;-61
2021/08/30 08:29:26;;;;;;;7.07;3.42;;;;;;;;;;5003919;28;20049;-62
2021/08/30 08:31:51;;;;;;;6.00;3.13;;;;;;;;;;4998474;28;20034;-62
2021/08/30 08:34:22;;;;;;;6.15;3.72;;;;;;;;;;5005348;28;20168;-61
2021/08/30 08:36:52;;;;;;;5.53;3.22;;;;;;;;;;5004135;28;20034;-62
2021/08/30 08:39:18;;;;;;;8.27;3.00;;;;;;;;;;4988494;28;20041;-63
2021/08/30 08:41:46;;;;;;;3.58;2.92;;;;;;;;;;4997656;28;20813;-61
2021/08/30 08:44:14;;;;;;;3.72;2.72;;;;;;;;;;5001283;28;20037;-62
2021/08/30 08:46:39;;;;;;;4.70;3.30;;;;;;;;;;5004119;28;20206;-62
2021/08/30 08:49:06;;;;;;;6.15;3.28;;;;;;;;;;5004615;28;21903;-62
2021/08/30 08:51:32;;;;;;;6.93;2.72;;;;;;;;;;4983555;28;20029;-62
2021/08/30 08:53:58;;;;;;;7.85;2.80;;;;;;;;;;5001537;28;20040;-62
2021/08/30 08:56:25;;;;;;;8.25;3.00;;;;;;;;;;4998566;28;20044;-62
2021/08/30 08:58:51;;;;;;;3.60;2.85;;;;;;;;;;4983468;28;20052;-62
2021/08/30 09:01:22;;;;;;;3.88;2.90;;;;;;;;;;5007460;28;20041;-62
2021/08/30 09:03:51;;;;;;;3.58;2.45;;;;;;;;;;4986693;28;20794;-61
2021/08/30 09:06:24;;;;;;;5.05;2.70;;;;;;;;;;5002842;28;20029;-61
2021/08/30 09:08:59;;;;;;;6.70;2.80;;;;;;;;;;4985817;28;20033;-61
2021/08/30 09:11:31;;;;;;;5.55;2.65;;;;;;;;;;5004381;28;20034;-61
2021/08/30 09:13:57;;;;;;;5.80;3.08;;;;;;;;;;4996609;28;20183;-62
2021/08/30 09:16:24;;;;;;;5.20;2.70;;;;;;;;;;4998798;28;20029;-61
2021/08/30 09:18:53;;;;;;;5.05;2.83;;;;;;;;;;4998977;28;20079;-62
2021/08/30 09:21:18;;;;;;;5.20;3.20;;;;;;;;;;5003883;28;20021;-62
2021/08/30 09:23:45;;;;;;;4.30;2.78;;;;;;;;;;5003276;28;20038;-61
2021/08/30 09:26:14;;;;;;;5.25;3.05;;;;;;;;;;5004058;28;20017;-62
2021/08/30 09:28:43;;;;;;;6.38;2.97;;;;;;;;;;5004136;28;20033;-62
2021/08/30 09:31:11;;;;;;;8.88;3.05;;;;;;;;;;5001473;28;20029;-61
2021/08/30 09:33:45;;;;;;;8.15;3.17;;;;;;;;;;4984426;28;20116;-62
2021/08/30 09:36:13;;;;;;;8.97;3.07;;;;;;;;;;5003207;28;20037;-62
2021/08/30 09:38:39;;;;;;;4.18;2.83;;;;;;;;;;5005003;28;21859;-60
2021/08/30 09:41:05;;;;;;;5.45;3.17;;;;;;;;;;5003191;28;20582;-62
2021/08/30 09:43:33;;;;;;;4.72;2.65;;;;;;;;;;4993748;28;20041;-61
2021/08/30 09:46:05;;;;;;;6.50;2.58;;;;;;;;;;5003348;28;20053;-59
2021/08/30 09:48:31;;;;;;;4.93;2.53;;;;;;;;;;4999414;28;20220;-61
2021/08/30 09:51:02;;;;;;;5.25;3.17;;;;;;;;;;5000806;28;20025;-61
2021/08/30 09:53:32;;;;;;;5.38;2.90;;;;;;;;;;5001647;28;20043;-61
2021/08/30 09:56:00;;;;;;;7.30;3.30;;;;;;;;;;5003858;28;20041;-60
2021/08/30 09:58:29;;;;;;;9.13;3.17;;;;;;;;;;5000114;28;20408;-60
2021/08/30 10:00:57;;;;;;;8.35;2.97;;;;;;;;;;5004737;28;20044;-61
2021/08/30 10:03:28;;;;;;;10.70;3.00;;;;;;;;;;4999069;28;20025;-60
2021/08/30 10:05:55;;;;;;;5.25;3.33;;;;;;;;;;5017011;28;20038;-61
2021/08/30 10:08:22;;;;;;;4.57;2.88;;;;;;;;;;5000612;28;20120;-62
2021/08/30 10:10:48;;;;;;;4.75;2.92;;;;;;;;;;4987052;28;20033;-60
2021/08/30 10:13:20;;;;;;;4.72;2.75;;;;;;;;;;4999939;28;22067;-60
2021/08/30 10:15:48;;;;;;;5.57;3.08;;;;;;;;;;5001500;28;20648;-61
2021/08/30 10:18:16;;;;;;;4.53;2.83;;;;;;;;;;5001411;28;20056;-62
2021/08/30 10:20:43;;;;;;;6.15;2.50;;;;;;;;;;5001619;28;20052;-60
2021/08/30 10:23:09;;;;;;;4.70;2.55;;;;;;;;;;5002744;28;20048;-59
2021/08/30 10:25:55;;;;;;;6.22;2.83;;;;;;;;;;5002126;28;20029;-61
2021/08/30 10:28:20;;;;;;;4.68;3.17;;;;;;;;;;4999950;28;20060;-61
2021/08/30 10:30:53;;;;;;;5.88;3.03;;;;;;;;;;5001476;28;20029;-61
2021/08/30 10:33:23;;;;;;;7.18;3.13;;;;;;;;;;4980890;28;20030;-60
2021/08/30 10:35:49;;;;;;;3.33;2.67;;;;;;;;;;4999637;28;20033;-60
2021/08/30 10:38:18;;;;;;;9.27;3.30;;;;;;;;;;5000856;28;20056;-59
2021/08/30 10:40:48;;;;;;;3.83;2.75;;;;;;;;;;5000512;28;20029;-58
2021/08/30 10:43:17;;;;;;;8.38;3.15;;;;;;;;;;4997849;28;20025;-59
2021/08/30 10:45:56;;;;;;;3.22;2.38;;;;;;;;;;4994058;28;20040;-60
2021/08/30 10:48:30;;;;;;;5.97;2.90;;;;;;;;;;5015200;28;20094;-60
2021/08/30 10:50:57;;;;;;;5.53;2.90;;;;;;;;;;4999563;28;21850;-60
2021/08/30 10:53:24;;;;;;;3.58;2.90;;;;;;;;;;4981311;28;20026;-61
2021/08/30 10:55:52;;;;;;;8.98;3.22;;;;;;;;;;4975583;28;20045;-61
2021/08/30 10:58:28;;;;;;;7.78;3.95;;;;;;;;;;4997158;28;20809;-61
2021/08/30 11:00:55;;;;;;;5.78;3.22;;;;;;;;;;4995684;28;20512;-60
2021/08/30 11:03:41;;;;;;;6.93;2.95;;;;;;;;;;4994639;28;20029;-61
2021/08/30 11:06:15;;;;;;;6.07;3.00;;;;;;;;;;4999706;28;20025;-61
2021/08/30 11:08:42;;;;;;;9.90;3.00;;;;;;;;;;4993416;28;20025;-61
2021/08/30 11:11:07;;;;;;;7.22;2.90;;;;;;;;;;4998273;28;20017;-61
2021/08/30 11:13:35;;;;;;;3.45;2.40;;;;;;;;;;4980815;28;21511;-60
2021/08/30 11:16:01;;;;;;;5.38;2.67;;;;;;;;;;4995246;28;20106;-63
2021/08/30 11:18:27;;;;;;;5.55;2.60;;;;;;;;;;4998587;28;20041;-61
2021/08/30 11:20:53;;;;;;;5.15;2.67;;;;;;;;;;4999181;28;20374;-60
2021/08/30 11:23:23;;;;;;;3.45;2.25;;;;;;;;;;4979506;28;20037;-61
2021/08/30 11:25:48;;;;;;;6.97;2.90;;;;;;;;;;4998060;28;20825;-61
2021/08/30 11:28:15;;;;;;;7.60;2.50;;;;;;;;;;4999945;28;20035;-60
2021/08/30 11:30:40;;;;;;;4.03;2.78;;;;;;;;;;4995514;28;20156;-60
2021/08/30 11:33:06;;;;;;;2.47;1.98;;;;;;;;;;4983413;28;20080;-59
2021/08/30 11:35:31;;;;;;;2.25;1.80;;;;;;;;;;4983704;28;20071;-59
2021/08/30 11:37:58;;;;;;;5.43;2.30;;;;;;;;;;4998343;28;20468;-60
2021/08/30 11:40:23;;;;;;;2.03;1.75;;;;;;;;;;4978084;28;20037;-61
2021/08/30 11:42:49;;;;;;;2.97;2.10;;;;;;;;;;4997438;28;20812;-60
2021/08/30 11:45:14;;;;;;;5.60;2.20;;;;;;;;;;4979343;28;20504;-60
2021/08/30 11:47:40;;;;;;;8.75;2.35;;;;;;;;;;4998854;28;20183;-59
2021/08/30 11:50:07;;;;;;;2.17;1.83;;;;;;;;;;4996217;28;20045;-59
2021/08/30 11:52:35;;;;;;;2.13;1.67;;;;;;;;;;5001034;28;22234;-59
2021/08/30 11:55:05;;;;;;;3.70;1.77;;;;;;;;;;4999597;28;20025;-59
2021/08/30 11:57:38;;;;;;;2.50;1.95;;;;;;;;;;4996515;28;20482;-60
2021/08/30 12:00:06;;;;;;;;;;;;;;;;;;4977549;28;20033;-61
2021/08/30 12:02:40;;;;;;;2.33;1.90;;;;;;;;;;4995930;28;19990;-60
2021/08/30 12:05:11;;;;;;;6.45;2.00;;;;;;;;;;4999034;28;20033;-60
2021/08/30 12:07:37;;;;;;;2.15;1.88;;;;;;;;;;4978344;28;20042;-60
2021/08/30 12:10:04;;;;;;;3.47;2.58;;;;;;;;;;4999412;28;20158;-60
2021/08/30 12:12:32;;;;;;;2.85;2.28;;;;;;;;;;4999606;28;20029;-61
2021/08/30 12:15:17;;;;;;;4.57;2.22;;;;;;;;;;4995428;28;20487;-61
2021/08/30 12:17:50;;;;;;;2.95;2.40;;;;;;;;;;4996108;28;20037;-59
2021/08/30 12:20:21;;;;;;;4.28;2.55;;;;;;;;;;4998088;28;21062;-60
2021/08/30 12:22:50;;;;;;;3.38;2.55;;;;;;;;;;4996802;28;20033;-59
2021/08/30 12:25:21;;;;;;;6.28;2.55;;;;;;;;;;4995917;28;20152;-60
2021/08/30 12:27:53;;;;;;;3.60;2.38;;;;;;;;;;4993935;28;20025;-61
2021/08/30 12:30:21;;;;;;;5.03;2.70;;;;;;;;;;4995998;28;20033;-60
2021/08/30 12:32:48;;;;;;;3.92;2.53;;;;;;;;;;4996807;28;20587;-60
2021/08/30 12:35:25;;;;;;;3.60;2.80;;;;;;;;;;4981764;28;20744;-60
2021/08/30 12:37:53;;;;;;;5.35;2.97;;;;;;;;;;5000075;28;20038;-61
2021/08/30 12:40:19;;;;;;;5.65;3.03;;;;;;;;;;5001052;28;20029;-60
2021/08/30 12:42:47;;;;;;;3.92;2.65;;;;;;;;;;4998904;28;20033;-60
2021/08/30 12:45:15;;;;;;;3.20;2.40;;;;;;;;;;4979665;28;20038;-60
2021/08/30 12:47:43;;;;;;;3.83;2.53;;;;;;;;;;4977571;28;20591;-60
2021/08/30 12:50:08;;;;;;;4.53;2.50;;;;;;;;;;4999017;28;20577;-60
2021/08/30 12:52:36;;;;;;;5.20;2.50;;;;;;;;;;4997647;28;20029;-60
2021/08/30 12:55:05;;;;;;;4.80;2.60;;;;;;;;;;4986482;28;20030;-60
2021/08/30 12:57:36;;;;;;;4.65;3.10;;;;;;;;;;5014124;28;20060;-60
2021/08/30 13:00:03;;;;;;;3.58;2.80;;;;;;;;;;5003801;28;22027;-61
2021/08/30 13:02:30;;;;;;;4.35;2.92;;;;;;;;;;5003133;28;20025;-59
2021/08/30 13:04:57;;;;;;;6.78;2.90;;;;;;;;;;4983386;28;20032;-59
2021/08/30 13:07:22;;;;;;;5.72;2.92;;;;;;;;;;5002720;28;20171;-59
2021/08/30 13:09:48;;;;;;;8.60;3.53;;;;;;;;;;5002543;28;20171;-60
2021/08/30 13:12:13;;;;;;;3.40;2.75;;;;;;;;;;5001463;28;20160;-60
2021/08/30 13:14:39;;;;;;;7.03;3.45;;;;;;;;;;4998202;28;20049;-59
2021/08/30 13:17:06;;;;;;;6.47;3.20;;;;;;;;;;4985330;28;20075;-59
2021/08/30 13:19:32;;;;;;;4.03;2.97;;;;;;;;;;5000779;28;20034;-58
2021/08/30 13:22:02;;;;;;;3.58;2.90;;;;;;;;;;4999767;28;20136;-58
2021/08/30 13:24:28;;;;;;;8.77;3.33;;;;;;;;;;5003423;28;21883;-60
2021/08/30 13:26:56;;;;;;;4.78;3.22;;;;;;;;;;4964951;28;20568;-61
2021/08/30 13:29:22;;;;;;;6.97;3.30;;;;;;;;;;5010959;28;20096;-60
2021/08/30 13:31:47;;;;;;;6.38;4.00;;;;;;;;;;4982985;28;20033;-59
2021/08/30 13:34:15;;;;;;;5.30;3.60;;;;;;;;;;4992602;28;20124;-58
2021/08/30 13:36:41;;;;;;;4.57;3.08;;;;;;;;;;5000961;28;20103;-60
2021/08/30 13:39:11;;;;;;;8.32;3.33;;;;;;;;;;4979106;28;20477;-60
2021/08/30 13:41:37;;;;;;;7.60;3.08;;;;;;;;;;4997249;28;20084;-59
2021/08/30 13:44:02;;;;;;;6.57;3.63;;;;;;;;;;4999625;28;20781;-58
2021/08/30 13:46:32;;;;;;;4.97;3.20;;;;;;;;;;4981005;28;20079;-60
2021/08/30 13:49:00;;;;;;;5.55;3.55;;;;;;;;;;4979777;28;20037;-59
2021/08/30 13:51:27;;;;;;;4.97;3.10;;;;;;;;;;5001603;28;20486;-59
2021/08/30 13:53:54;;;;;;;4.53;3.03;;;;;;;;;;4981385;28;20673;-60
2021/08/30 13:56:22;;;;;;;5.22;3.00;;;;;;;;;;4999110;28;21245;-58
2021/08/30 13:58:47;;;;;;;3.80;3.10;;;;;;;;;;4997393;28;20041;-58
2021/08/30 14:01:15;;;;;;;9.75;3.10;;;;;;;;;;4967291;28;20022;-59
2021/08/30 14:03:41;;;;;;;4.55;3.60;;;;;;;;;;4999835;28;20029;-61
2021/08/30 14:06:08;;;;;;;4.72;3.00;;;;;;;;;;4998272;28;20029;-57
2021/08/30 14:08:34;;;;;;;6.78;3.20;;;;;;;;;;4995713;28;20033;-59
2021/08/30 14:10:59;;;;;;;5.22;3.80;;;;;;;;;;4995679;28;20162;-58
2021/08/30 14:13:27;;;;;;;6.43;3.13;;;;;;;;;;4997121;28;20034;-61
2021/08/30 14:15:58;;;;;;;6.07;3.50;;;;;;;;;;4968565;28;20049;-59
2021/08/30 14:18:28;;;;;;;7.77;3.50;;;;;;;;;;4997602;28;20037;-59
2021/08/30 14:20:53;;;;;;;9.55;3.50;;;;;;;;;;4985777;28;20159;-59
2021/08/30 14:23:23;;;;;;;9.15;3.85;;;;;;;;;;5000927;28;20022;-59
2021/08/30 14:25:51;;;;;;;7.05;3.53;;;;;;;;;;4994960;28;20046;-59
2021/08/30 14:28:16;;;;;;;5.03;3.50;;;;;;;;;;4999415;28;21010;-58
2021/08/30 14:30:45;;;;;;;6.22;4.10;;;;;;;;;;4998635;28;20033;-59
2021/08/30 14:33:13;;;;;;;11.98;4.90;;;;;;;;;;4994563;28;22076;-59
2021/08/30 14:35:40;;;;;;;9.00;4.43;;;;;;;;;;4968602;28;20650;-58
2021/08/30 14:38:06;;;;;;;7.88;4.90;;;;;;;;;;4990348;28;20036;-58